sensor_id;sensor_type;location;lat;lon;timestamp;pressure;altitude;pressure_sealevel;temperature;humidity
26436;BME280;15351;52.408;16.826;2023-02-10T00:01:26;102381.63;;;1.55;56.70
26436;BME280;15351;52.408;16.826;2023-02-10T00:03:54;102380.70;;;1.52;56.78
26436;BME280;15351;52.408;16.826;2023-02-10T00:06:24;102385.77;;;1.53;56.90
26436;BME280;15351;52.408;16.826;2023-02-10T00:08:55;102386.28;;;1.54;56.94
26436;BME280;15351;52.408;16.826;2023-02-10T00:11:23;102390.69;;;1.54;56.93
26436;BME280;15351;52.408;16.826;2023-02-10T00:14:13;102389.30;;;1.54;56.92
26436;BME280;15351;52.408;16.826;2023-02-10T00:16:41;102387.48;;;1.55;57.04
26436;BME280;15351;52.408;16.826;2023-02-10T00:19:09;102382.81;;;1.56;56.92
26436;BME280;15351;52.408;16.826;2023-02-10T00:21:36;102382.98;;;1.56;57.07
26436;BME280;15351;52.408;16.826;2023-02-10T00:24:04;102381.42;;;1.59;57.06
26436;BME280;15351;52.408;16.826;2023-02-10T00:26:32;102378.20;;;1.60;57.05
26436;BME280;15351;52.408;16.826;2023-02-10T00:29:00;102371.05;;;1.58;57.00
26436;BME280;15351;52.408;16.826;2023-02-10T00:31:29;102375.67;;;1.53;57.11
26436;BME280;15351;52.408;16.826;2023-02-10T00:33:56;102381.02;;;1.53;57.22
26436;BME280;15351;52.408;16.826;2023-02-10T00:36:24;102379.56;;;1.51;57.30
26436;BME280;15351;52.408;16.826;2023-02-10T00:38:51;102380.27;;;1.47;57.35
26436;BME280;15351;52.408;16.826;2023-02-10T00:41:23;102380.95;;;1.44;57.47
26436;BME280;15351;52.408;16.826;2023-02-10T00:43:54;102381.58;;;1.42;57.43
26436;BME280;15351;52.408;16.826;2023-02-10T00:46:21;102386.27;;;1.40;57.49
26436;BME280;15351;52.408;16.826;2023-02-10T00:48:50;102383.80;;;1.36;57.58
26436;BME280;15351;52.408;16.826;2023-02-10T00:51:19;102381.59;;;1.34;57.74
26436;BME280;15351;52.408;16.826;2023-02-10T00:53:46;102370.86;;;1.32;57.81
26436;BME280;15351;52.408;16.826;2023-02-10T00:56:20;102371.94;;;1.29;57.89
26436;BME280;15351;52.408;16.826;2023-02-10T00:58:49;102365.85;;;1.27;58.03
26436;BME280;15351;52.408;16.826;2023-02-10T01:01:16;102367.41;;;1.27;58.09
26436;BME280;15351;52.408;16.826;2023-02-10T01:03:45;102369.35;;;1.28;58.05
26436;BME280;15351;52.408;16.826;2023-02-10T01:06:14;102370.13;;;1.26;58.19
26436;BME280;15351;52.408;16.826;2023-02-10T01:08:48;102367.67;;;1.25;58.34
26436;BME280;15351;52.408;16.826;2023-02-10T01:11:15;102365.73;;;1.25;58.38
26436;BME280;15351;52.408;16.826;2023-02-10T01:13:45;102367.02;;;1.24;58.36
26436;BME280;15351;52.408;16.826;2023-02-10T01:16:14;102369.95;;;1.22;58.43
26436;BME280;15351;52.408;16.826;2023-02-10T01:18:44;102372.55;;;1.19;58.50
26436;BME280;15351;52.408;16.826;2023-02-10T01:21:18;102363.30;;;1.13;58.60
26436;BME280;15351;52.408;16.826;2023-02-10T01:23:47;102359.55;;;1.10;58.78
26436;BME280;15351;52.408;16.826;2023-02-10T01:26:14;102363.28;;;1.10;59.08
26436;BME280;15351;52.408;16.826;2023-02-10T01:28:43;102362.55;;;1.07;58.87
26436;BME280;15351;52.408;16.826;2023-02-10T01:31:16;102359.65;;;1.08;59.09
26436;BME280;15351;52.408;16.826;2023-02-10T01:33:44;102366.60;;;1.07;59.19
26436;BME280;15351;52.408;16.826;2023-02-10T01:36:15;102354.59;;;1.06;59.20
26436;BME280;15351;52.408;16.826;2023-02-10T01:38:44;102351.20;;;1.07;59.19
26436;BME280;15351;52.408;16.826;2023-02-10T01:41:14;102346.36;;;1.08;59.35
26436;BME280;15351;52.408;16.826;2023-02-10T01:44:01;102342.07;;;1.09;59.39
26436;BME280;15351;52.408;16.826;2023-02-10T01:46:31;102343.48;;;1.13;59.73
26436;BME280;15351;52.408;16.826;2023-02-10T01:49:08;102343.37;;;1.22;59.65
26436;BME280;15351;52.408;16.826;2023-02-10T01:54:30;102343.83;;;1.31;59.44
26436;BME280;15351;52.408;16.826;2023-02-10T01:56:59;102352.10;;;1.35;59.32
26436;BME280;15351;52.408;16.826;2023-02-10T01:59:30;102355.48;;;1.39;59.35
26436;BME280;15351;52.408;16.826;2023-02-10T02:02:00;102359.54;;;1.39;59.30
26436;BME280;15351;52.408;16.826;2023-02-10T02:04:41;102359.27;;;1.41;59.38
26436;BME280;15351;52.408;16.826;2023-02-10T02:07:10;102361.09;;;1.45;59.39
26436;BME280;15351;52.408;16.826;2023-02-10T02:09:37;102361.04;;;1.45;59.35
26436;BME280;15351;52.408;16.826;2023-02-10T02:12:41;102357.44;;;1.46;59.34
26436;BME280;15351;52.408;16.826;2023-02-10T02:18:32;102352.02;;;1.52;59.36
26436;BME280;15351;52.408;16.826;2023-02-10T02:21:29;102351.04;;;1.53;59.22
26436;BME280;15351;52.408;16.826;2023-02-10T02:24:30;102345.67;;;1.58;59.44
26436;BME280;15351;52.408;16.826;2023-02-10T02:27:33;102337.83;;;1.63;59.39
26436;BME280;15351;52.408;16.826;2023-02-10T02:33:14;102356.38;;;1.60;59.46
26436;BME280;15351;52.408;16.826;2023-02-10T02:35:57;102359.58;;;1.60;59.35
26436;BME280;15351;52.408;16.826;2023-02-10T02:38:26;102360.02;;;1.59;59.31
26436;BME280;15351;52.408;16.826;2023-02-10T02:40:54;102362.28;;;1.56;59.52
26436;BME280;15351;52.408;16.826;2023-02-10T02:43:23;102367.20;;;1.57;59.52
26436;BME280;15351;52.408;16.826;2023-02-10T02:46:10;102372.86;;;1.57;59.56
26436;BME280;15351;52.408;16.826;2023-02-10T02:49:09;102370.45;;;1.59;59.67
26436;BME280;15351;52.408;16.826;2023-02-10T02:54:27;102368.73;;;1.62;59.54
26436;BME280;15351;52.408;16.826;2023-02-10T02:59:47;102360.23;;;1.65;59.77
26436;BME280;15351;52.408;16.826;2023-02-10T03:02:19;102362.64;;;1.66;59.81
26436;BME280;15351;52.408;16.826;2023-02-10T03:04:53;102364.30;;;1.68;59.80
26436;BME280;15351;52.408;16.826;2023-02-10T03:07:21;102368.61;;;1.67;59.77
26436;BME280;15351;52.408;16.826;2023-02-10T03:09:51;102364.70;;;1.71;60.10
26436;BME280;15351;52.408;16.826;2023-02-10T03:12:18;102366.06;;;1.79;60.07
26436;BME280;15351;52.408;16.826;2023-02-10T03:14:46;102366.86;;;1.81;59.90
26436;BME280;15351;52.408;16.826;2023-02-10T03:17:15;102371.67;;;1.84;59.76
26436;BME280;15351;52.408;16.826;2023-02-10T03:19:43;102378.89;;;1.89;59.85
26436;BME280;15351;52.408;16.826;2023-02-10T03:22:11;102380.20;;;1.88;59.66
26436;BME280;15351;52.408;16.826;2023-02-10T03:24:39;102377.77;;;1.90;59.73
26436;BME280;15351;52.408;16.826;2023-02-10T03:27:06;102375.91;;;1.92;59.81
26436;BME280;15351;52.408;16.826;2023-02-10T03:29:34;102381.11;;;1.94;59.80
26436;BME280;15351;52.408;16.826;2023-02-10T03:32:02;102380.75;;;1.98;59.91
26436;BME280;15351;52.408;16.826;2023-02-10T03:34:33;102387.15;;;1.97;59.89
26436;BME280;15351;52.408;16.826;2023-02-10T03:37:02;102392.11;;;1.97;60.02
26436;BME280;15351;52.408;16.826;2023-02-10T03:39:29;102396.52;;;2.01;60.00
26436;BME280;15351;52.408;16.826;2023-02-10T03:41:57;102400.89;;;2.02;60.06
26436;BME280;15351;52.408;16.826;2023-02-10T03:44:25;102396.66;;;2.01;60.24
26436;BME280;15351;52.408;16.826;2023-02-10T03:46:52;102403.53;;;2.03;60.35
26436;BME280;15351;52.408;16.826;2023-02-10T03:49:19;102395.10;;;2.05;60.51
26436;BME280;15351;52.408;16.826;2023-02-10T03:51:46;102397.35;;;2.06;60.41
26436;BME280;15351;52.408;16.826;2023-02-10T03:54:13;102403.10;;;2.08;60.45
26436;BME280;15351;52.408;16.826;2023-02-10T03:56:40;102405.10;;;2.07;60.38
26436;BME280;15351;52.408;16.826;2023-02-10T03:59:08;102403.27;;;2.05;60.62
26436;BME280;15351;52.408;16.826;2023-02-10T04:01:36;102408.44;;;2.08;60.60
26436;BME280;15351;52.408;16.826;2023-02-10T04:04:03;102410.57;;;2.04;60.54
26436;BME280;15351;52.408;16.826;2023-02-10T04:06:30;102410.98;;;2.02;60.73
26436;BME280;15351;52.408;16.826;2023-02-10T04:08:58;102409.14;;;2.00;60.80
26436;BME280;15351;52.408;16.826;2023-02-10T04:11:26;102412.98;;;1.95;60.97
26436;BME280;15351;52.408;16.826;2023-02-10T04:13:54;102416.35;;;1.92;61.07
26436;BME280;15351;52.408;16.826;2023-02-10T04:16:21;102418.85;;;1.92;61.41
26436;BME280;15351;52.408;16.826;2023-02-10T04:18:55;102417.27;;;1.91;61.38
26436;BME280;15351;52.408;16.826;2023-02-10T04:21:22;102412.73;;;1.90;61.40
26436;BME280;15351;52.408;16.826;2023-02-10T04:23:52;102411.69;;;1.89;61.42
26436;BME280;15351;52.408;16.826;2023-02-10T04:26:21;102413.45;;;1.90;61.59
26436;BME280;15351;52.408;16.826;2023-02-10T04:28:48;102420.14;;;1.87;61.56
26436;BME280;15351;52.408;16.826;2023-02-10T04:31:18;102419.69;;;1.81;61.63
26436;BME280;15351;52.408;16.826;2023-02-10T04:33:45;102420.31;;;1.76;61.90
26436;BME280;15351;52.408;16.826;2023-02-10T04:36:13;102420.29;;;1.80;62.11
26436;BME280;15351;52.408;16.826;2023-02-10T04:38:41;102412.73;;;1.86;62.25
26436;BME280;15351;52.408;16.826;2023-02-10T04:41:10;102405.81;;;1.90;62.32
26436;BME280;15351;52.408;16.826;2023-02-10T04:43:38;102402.35;;;1.95;62.32
26436;BME280;15351;52.408;16.826;2023-02-10T04:46:06;102397.77;;;1.95;62.15
26436;BME280;15351;52.408;16.826;2023-02-10T04:48:34;102399.48;;;1.92;62.22
26436;BME280;15351;52.408;16.826;2023-02-10T04:51:11;102404.52;;;1.87;62.28
26436;BME280;15351;52.408;16.826;2023-02-10T04:53:39;102405.08;;;1.79;62.50
26436;BME280;15351;52.408;16.826;2023-02-10T04:56:07;102410.38;;;1.76;62.68
26436;BME280;15351;52.408;16.826;2023-02-10T04:58:36;102414.20;;;1.78;62.90
26436;BME280;15351;52.408;16.826;2023-02-10T05:01:03;102417.56;;;1.78;62.93
26436;BME280;15351;52.408;16.826;2023-02-10T05:03:31;102416.25;;;1.79;63.02
26436;BME280;15351;52.408;16.826;2023-02-10T05:05:58;102414.71;;;1.78;63.07
26436;BME280;15351;52.408;16.826;2023-02-10T05:08:26;102410.54;;;1.77;63.15
26436;BME280;15351;52.408;16.826;2023-02-10T05:10:53;102407.94;;;1.68;63.43
26436;BME280;15351;52.408;16.826;2023-02-10T05:13:20;102404.14;;;1.62;63.70
26436;BME280;15351;52.408;16.826;2023-02-10T05:15:48;102400.79;;;1.66;64.12
26436;BME280;15351;52.408;16.826;2023-02-10T05:18:16;102406.40;;;1.70;64.17
26436;BME280;15351;52.408;16.826;2023-02-10T05:20:42;102404.02;;;1.72;64.23
26436;BME280;15351;52.408;16.826;2023-02-10T05:23:12;102402.88;;;1.74;64.25
26436;BME280;15351;52.408;16.826;2023-02-10T05:25:47;102402.65;;;1.75;64.28
26436;BME280;15351;52.408;16.826;2023-02-10T05:28:14;102402.83;;;1.75;64.55
26436;BME280;15351;52.408;16.826;2023-02-10T05:30:42;102409.89;;;1.79;64.73
26436;BME280;15351;52.408;16.826;2023-02-10T05:33:10;102418.84;;;1.84;64.75
26436;BME280;15351;52.408;16.826;2023-02-10T05:35:39;102421.42;;;1.86;64.72
26436;BME280;15351;52.408;16.826;2023-02-10T05:38:07;102427.55;;;1.88;64.66
26436;BME280;15351;52.408;16.826;2023-02-10T05:40:35;102430.73;;;1.88;64.54
26436;BME280;15351;52.408;16.826;2023-02-10T05:43:02;102430.41;;;1.87;64.67
26436;BME280;15351;52.408;16.826;2023-02-10T05:45:30;102429.73;;;1.90;64.85
26436;BME280;15351;52.408;16.826;2023-02-10T05:47:59;102430.96;;;1.91;64.81
26436;BME280;15351;52.408;16.826;2023-02-10T05:50:26;102428.86;;;1.94;64.79
26436;BME280;15351;52.408;16.826;2023-02-10T05:52:54;102430.48;;;1.93;64.71
26436;BME280;15351;52.408;16.826;2023-02-10T05:55:21;102433.14;;;1.93;64.83
26436;BME280;15351;52.408;16.826;2023-02-10T05:57:51;102441.45;;;1.90;64.81
26436;BME280;15351;52.408;16.826;2023-02-10T06:00:18;102441.16;;;1.89;65.07
26436;BME280;15351;52.408;16.826;2023-02-10T06:02:45;102439.29;;;1.91;65.04
26436;BME280;15351;52.408;16.826;2023-02-10T06:05:14;102440.14;;;1.91;65.07
26436;BME280;15351;52.408;16.826;2023-02-10T06:07:41;102437.30;;;1.91;64.98
26436;BME280;15351;52.408;16.826;2023-02-10T06:10:09;102442.05;;;1.92;65.04
26436;BME280;15351;52.408;16.826;2023-02-10T06:12:36;102435.17;;;1.95;65.19
26436;BME280;15351;52.408;16.826;2023-02-10T06:15:03;102437.41;;;1.99;65.21
26436;BME280;15351;52.408;16.826;2023-02-10T06:17:30;102440.81;;;2.02;65.35
26436;BME280;15351;52.408;16.826;2023-02-10T06:19:57;102431.58;;;2.02;65.20
26436;BME280;15351;52.408;16.826;2023-02-10T06:22:25;102432.02;;;2.04;65.11
26436;BME280;15351;52.408;16.826;2023-02-10T06:25:00;102435.55;;;2.05;65.16
26436;BME280;15351;52.408;16.826;2023-02-10T06:27:28;102438.16;;;2.02;65.12
26436;BME280;15351;52.408;16.826;2023-02-10T06:29:56;102447.44;;;1.98;65.07
26436;BME280;15351;52.408;16.826;2023-02-10T06:32:24;102455.32;;;1.99;65.51
26436;BME280;15351;52.408;16.826;2023-02-10T06:34:50;102454.27;;;2.02;65.46
26436;BME280;15351;52.408;16.826;2023-02-10T06:37:18;102451.82;;;2.06;65.43
26436;BME280;15351;52.408;16.826;2023-02-10T06:39:45;102449.39;;;2.12;65.37
26436;BME280;15351;52.408;16.826;2023-02-10T06:42:13;102450.98;;;2.15;65.41
26436;BME280;15351;52.408;16.826;2023-02-10T06:44:41;102453.86;;;2.15;65.59
26436;BME280;15351;52.408;16.826;2023-02-10T06:47:09;102455.72;;;2.16;65.72
26436;BME280;15351;52.408;16.826;2023-02-10T06:49:36;102457.61;;;2.21;65.75
26436;BME280;15351;52.408;16.826;2023-02-10T06:52:04;102467.48;;;2.26;65.75
26436;BME280;15351;52.408;16.826;2023-02-10T06:54:31;102462.57;;;2.28;65.74
26436;BME280;15351;52.408;16.826;2023-02-10T06:56:58;102460.45;;;2.28;65.66
26436;BME280;15351;52.408;16.826;2023-02-10T06:59:25;102465.39;;;2.28;65.82
26436;BME280;15351;52.408;16.826;2023-02-10T07:01:52;102465.83;;;2.34;65.91
26436;BME280;15351;52.408;16.826;2023-02-10T07:04:27;102467.34;;;2.39;66.03
26436;BME280;15351;52.408;16.826;2023-02-10T07:06:56;102467.06;;;2.41;65.92
26436;BME280;15351;52.408;16.826;2023-02-10T07:09:32;102468.34;;;2.41;65.83
26436;BME280;15351;52.408;16.826;2023-02-10T07:12:07;102471.84;;;2.38;65.93
26436;BME280;15351;52.408;16.826;2023-02-10T07:14:34;102475.06;;;2.41;66.08
26436;BME280;15351;52.408;16.826;2023-02-10T07:17:02;102480.61;;;2.43;66.33
26436;BME280;15351;52.408;16.826;2023-02-10T07:19:31;102487.73;;;2.43;66.36
26436;BME280;15351;52.408;16.826;2023-02-10T07:22:00;102489.45;;;2.44;66.30
26436;BME280;15351;52.408;16.826;2023-02-10T07:24:32;102497.11;;;2.46;66.42
26436;BME280;15351;52.408;16.826;2023-02-10T07:27:00;102503.79;;;2.48;66.47
26436;BME280;15351;52.408;16.826;2023-02-10T07:29:28;102508.62;;;2.51;66.61
26436;BME280;15351;52.408;16.826;2023-02-10T07:31:55;102504.99;;;2.53;66.76
26436;BME280;15351;52.408;16.826;2023-02-10T07:34:25;102505.42;;;2.55;66.68
26436;BME280;15351;52.408;16.826;2023-02-10T07:36:53;102502.14;;;2.60;66.64
26436;BME280;15351;52.408;16.826;2023-02-10T07:39:23;102501.92;;;2.64;66.59
26436;BME280;15351;52.408;16.826;2023-02-10T07:41:52;102504.83;;;2.66;66.72
26436;BME280;15351;52.408;16.826;2023-02-10T07:44:21;102510.79;;;2.68;66.71
26436;BME280;15351;52.408;16.826;2023-02-10T07:46:51;102514.17;;;2.71;66.92
26436;BME280;15351;52.408;16.826;2023-02-10T07:49:18;102518.30;;;2.70;66.77
26436;BME280;15351;52.408;16.826;2023-02-10T07:51:45;102527.62;;;2.72;66.71
26436;BME280;15351;52.408;16.826;2023-02-10T07:54:14;102527.48;;;2.74;66.78
26436;BME280;15351;52.408;16.826;2023-02-10T07:56:41;102528.68;;;2.79;66.73
26436;BME280;15351;52.408;16.826;2023-02-10T07:59:08;102523.47;;;2.84;66.90
26436;BME280;15351;52.408;16.826;2023-02-10T08:01:35;102526.23;;;2.88;66.97
26436;BME280;15351;52.408;16.826;2023-02-10T08:04:09;102526.90;;;2.92;66.82
26436;BME280;15351;52.408;16.826;2023-02-10T08:06:37;102526.39;;;2.91;66.74
26436;BME280;15351;52.408;16.826;2023-02-10T08:09:04;102521.28;;;2.91;66.68
26436;BME280;15351;52.408;16.826;2023-02-10T08:11:32;102508.08;;;2.89;66.85
26436;BME280;15351;52.408;16.826;2023-02-10T08:14:00;102508.11;;;2.92;67.08
26436;BME280;15351;52.408;16.826;2023-02-10T08:16:29;102513.96;;;2.95;66.99
26436;BME280;15351;52.408;16.826;2023-02-10T08:18:56;102520.38;;;2.98;66.87
26436;BME280;15351;52.408;16.826;2023-02-10T08:21:23;102530.62;;;2.99;66.78
26436;BME280;15351;52.408;16.826;2023-02-10T08:23:53;102533.69;;;3.02;66.77
26436;BME280;15351;52.408;16.826;2023-02-10T08:26:23;102538.17;;;3.05;66.76
26436;BME280;15351;52.408;16.826;2023-02-10T08:28:54;102542.02;;;3.09;66.87
26436;BME280;15351;52.408;16.826;2023-02-10T08:31:22;102551.91;;;3.14;66.79
26436;BME280;15351;52.408;16.826;2023-02-10T08:33:52;102546.62;;;3.16;66.62
26436;BME280;15351;52.408;16.826;2023-02-10T08:36:23;102544.38;;;3.15;66.48
26436;BME280;15351;52.408;16.826;2023-02-10T08:38:51;102550.41;;;3.15;66.50
26436;BME280;15351;52.408;16.826;2023-02-10T08:41:20;102552.80;;;3.17;66.62
26436;BME280;15351;52.408;16.826;2023-02-10T08:43:48;102561.20;;;3.23;66.79
26436;BME280;15351;52.408;16.826;2023-02-10T08:46:18;102566.81;;;3.27;66.70
26436;BME280;15351;52.408;16.826;2023-02-10T08:48:46;102564.84;;;3.28;66.52
26436;BME280;15351;52.408;16.826;2023-02-10T08:51:16;102562.61;;;3.26;66.54
26436;BME280;15351;52.408;16.826;2023-02-10T08:53:43;102563.04;;;3.25;66.54
26436;BME280;15351;52.408;16.826;2023-02-10T08:56:14;102562.94;;;3.23;66.52
26436;BME280;15351;52.408;16.826;2023-02-10T08:58:42;102556.35;;;3.20;66.72
26436;BME280;15351;52.408;16.826;2023-02-10T09:01:18;102558.27;;;3.21;66.94
26436;BME280;15351;52.408;16.826;2023-02-10T09:03:47;102557.98;;;3.26;66.95
26436;BME280;15351;52.408;16.826;2023-02-10T09:06:22;102559.92;;;3.30;66.95
26436;BME280;15351;52.408;16.826;2023-02-10T09:08:51;102555.98;;;3.30;66.92
26436;BME280;15351;52.408;16.826;2023-02-10T09:11:23;102552.48;;;3.33;66.99
26436;BME280;15351;52.408;16.826;2023-02-10T09:13:51;102547.58;;;3.38;67.21
26436;BME280;15351;52.408;16.826;2023-02-10T09:16:19;102554.56;;;3.44;67.14
26436;BME280;15351;52.408;16.826;2023-02-10T09:18:47;102565.88;;;3.48;67.07
26436;BME280;15351;52.408;16.826;2023-02-10T09:21:14;102581.31;;;3.52;67.13
26436;BME280;15351;52.408;16.826;2023-02-10T09:23:42;102585.35;;;3.53;67.06
26436;BME280;15351;52.408;16.826;2023-02-10T09:26:10;102580.65;;;3.51;67.24
26436;BME280;15351;52.408;16.826;2023-02-10T09:28:38;102585.98;;;3.58;67.41
26436;BME280;15351;52.408;16.826;2023-02-10T09:31:11;102591.80;;;3.62;67.24
26436;BME280;15351;52.408;16.826;2023-02-10T09:33:39;102593.27;;;3.68;67.34
26436;BME280;15351;52.408;16.826;2023-02-10T09:36:07;102599.07;;;3.72;67.28
26436;BME280;15351;52.408;16.826;2023-02-10T09:38:37;102597.99;;;3.72;67.32
26436;BME280;15351;52.408;16.826;2023-02-10T09:44:22;102596.09;;;3.84;67.48
26436;BME280;15351;52.408;16.826;2023-02-10T09:47:33;102596.35;;;3.86;67.51
26436;BME280;15351;52.408;16.826;2023-02-10T09:55:40;102585.98;;;3.86;67.98
26436;BME280;15351;52.408;16.826;2023-02-10T10:00:55;102576.11;;;3.92;67.84
26436;BME280;15351;52.408;16.826;2023-02-10T10:03:28;102579.39;;;3.94;67.87
26436;BME280;15351;52.408;16.826;2023-02-10T10:06:25;102575.71;;;3.89;67.79
26436;BME280;15351;52.408;16.826;2023-02-10T10:11:35;102580.26;;;3.87;67.97
26436;BME280;15351;52.408;16.826;2023-02-10T10:14:04;102586.15;;;3.87;67.93
26436;BME280;15351;52.408;16.826;2023-02-10T10:25:36;102584.05;;;3.96;67.93
26436;BME280;15351;52.408;16.826;2023-02-10T10:31:17;102578.60;;;3.92;68.00
26436;BME280;15351;52.408;16.826;2023-02-10T10:36:22;102588.72;;;3.95;68.44
26436;BME280;15351;52.408;16.826;2023-02-10T10:38:52;102589.74;;;3.96;68.37
26436;BME280;15351;52.408;16.826;2023-02-10T10:41:25;102579.81;;;3.96;68.39
26436;BME280;15351;52.408;16.826;2023-02-10T10:43:55;102582.65;;;3.99;68.46
26436;BME280;15351;52.408;16.826;2023-02-10T10:46:40;102578.41;;;3.98;68.43
26436;BME280;15351;52.408;16.826;2023-02-10T10:49:11;102577.17;;;4.04;68.53
26436;BME280;15351;52.408;16.826;2023-02-10T10:51:39;102571.24;;;4.12;68.69
26436;BME280;15351;52.408;16.826;2023-02-10T10:54:10;102562.88;;;4.18;68.47
26436;BME280;15351;52.408;16.826;2023-02-10T10:56:49;102562.55;;;4.20;68.44
26436;BME280;15351;52.408;16.826;2023-02-10T10:59:36;102570.36;;;4.21;68.43
26436;BME280;15351;52.408;16.826;2023-02-10T11:02:15;102573.08;;;4.23;68.50
26436;BME280;15351;52.408;16.826;2023-02-10T11:04:43;102569.85;;;4.30;68.49
26436;BME280;15351;52.408;16.826;2023-02-10T11:07:19;102566.46;;;4.36;68.51
26436;BME280;15351;52.408;16.826;2023-02-10T11:09:52;102563.13;;;4.41;68.43
26436;BME280;15351;52.408;16.826;2023-02-10T11:12:37;102556.48;;;4.42;68.44
26436;BME280;15351;52.408;16.826;2023-02-10T11:17:52;102547.91;;;4.40;68.69
26436;BME280;15351;52.408;16.826;2023-02-10T11:20:33;102543.33;;;4.48;68.59
26436;BME280;15351;52.408;16.826;2023-02-10T11:23:15;102550.61;;;4.58;68.43
26436;BME280;15351;52.408;16.826;2023-02-10T11:26:16;102555.52;;;4.62;68.30
26436;BME280;15351;52.408;16.826;2023-02-10T11:28:42;102553.80;;;4.66;68.31
26436;BME280;15351;52.408;16.826;2023-02-10T11:34:00;102547.66;;;4.80;68.25
26436;BME280;15351;52.408;16.826;2023-02-10T11:36:41;102537.98;;;4.87;67.95
26436;BME280;15351;52.408;16.826;2023-02-10T11:41:50;102540.88;;;5.07;67.87
26436;BME280;15351;52.408;16.826;2023-02-10T11:44:30;102538.36;;;5.12;67.78
26436;BME280;15351;52.408;16.826;2023-02-10T11:47:03;102535.64;;;5.19;67.67
26436;BME280;15351;52.408;16.826;2023-02-10T11:49:34;102523.34;;;5.31;67.65
26436;BME280;15351;52.408;16.826;2023-02-10T11:52:08;102514.81;;;5.47;67.35
26436;BME280;15351;52.408;16.826;2023-02-10T11:54:37;102513.78;;;5.57;67.12
26436;BME280;15351;52.408;16.826;2023-02-10T11:57:15;102514.98;;;5.61;67.05
26436;BME280;15351;52.408;16.826;2023-02-10T12:08:47;102513.24;;;5.72;66.29
26436;BME280;15351;52.408;16.826;2023-02-10T12:22:23;102525.02;;;5.86;66.34
26436;BME280;15351;52.408;16.826;2023-02-10T12:25:06;102526.84;;;6.02;66.15
26436;BME280;15351;52.408;16.826;2023-02-10T12:28:04;102531.73;;;6.03;65.98
26436;BME280;15351;52.408;16.826;2023-02-10T12:30:49;102528.80;;;6.07;66.01
26436;BME280;15351;52.408;16.826;2023-02-10T12:36:35;102536.15;;;6.15;65.31
26436;BME280;15351;52.408;16.826;2023-02-10T12:44:51;102534.52;;;6.10;65.53
26436;BME280;15351;52.408;16.826;2023-02-10T12:50:37;102533.75;;;6.08;65.43
26436;BME280;15351;52.408;16.826;2023-02-10T12:53:20;102532.31;;;6.00;65.51
26436;BME280;15351;52.408;16.826;2023-02-10T12:58:36;102524.38;;;5.98;65.79
26436;BME280;15351;52.408;16.826;2023-02-10T13:01:38;102528.22;;;5.97;65.88
26436;BME280;15351;52.408;16.826;2023-02-10T13:04:21;102527.19;;;5.94;66.15
26436;BME280;15351;52.408;16.826;2023-02-10T13:07:59;102528.42;;;5.91;66.17
26436;BME280;15351;52.408;16.826;2023-02-10T13:10:22;102528.19;;;5.86;66.18
26436;BME280;15351;52.408;16.826;2023-02-10T13:12:59;102528.02;;;5.84;66.23
26436;BME280;15351;52.408;16.826;2023-02-10T13:15:33;102525.44;;;5.79;66.42
26436;BME280;15351;52.408;16.826;2023-02-10T13:18:02;102526.30;;;5.83;66.50
26436;BME280;15351;52.408;16.826;2023-02-10T13:27:19;102529.95;;;5.90;66.34
26436;BME280;15351;52.408;16.826;2023-02-10T13:30:05;102529.08;;;5.92;66.31
26436;BME280;15351;52.408;16.826;2023-02-10T13:33:32;102527.66;;;5.92;66.42
26436;BME280;15351;52.408;16.826;2023-02-10T13:36:15;102528.45;;;5.94;66.51
26436;BME280;15351;52.408;16.826;2023-02-10T13:38:49;102531.58;;;5.95;66.19
26436;BME280;15351;52.408;16.826;2023-02-10T13:41:35;102529.39;;;5.96;66.37
26436;BME280;15351;52.408;16.826;2023-02-10T13:44:32;102522.10;;;5.95;66.37
26436;BME280;15351;52.408;16.826;2023-02-10T13:50:02;102520.44;;;5.93;66.45
26436;BME280;15351;52.408;16.826;2023-02-10T13:52:33;102520.73;;;5.94;66.44
26436;BME280;15351;52.408;16.826;2023-02-10T13:57:39;102522.23;;;5.93;66.44
26436;BME280;15351;52.408;16.826;2023-02-10T14:00:20;102519.13;;;5.91;66.57
26436;BME280;15351;52.408;16.826;2023-02-10T14:05:50;102511.27;;;5.89;66.82
26436;BME280;15351;52.408;16.826;2023-02-10T14:08:37;102514.80;;;5.89;66.78
26436;BME280;15351;52.408;16.826;2023-02-10T14:13:55;102524.24;;;5.90;66.82
26436;BME280;15351;52.408;16.826;2023-02-10T14:16:36;102521.50;;;5.85;66.83
26436;BME280;15351;52.408;16.826;2023-02-10T14:19:20;102524.28;;;5.86;66.98
26436;BME280;15351;52.408;16.826;2023-02-10T14:21:48;102524.13;;;5.91;66.97
26436;BME280;15351;52.408;16.826;2023-02-10T14:24:24;102522.05;;;5.91;66.91
26436;BME280;15351;52.408;16.826;2023-02-10T14:26:52;102521.13;;;5.88;66.93
26436;BME280;15351;52.408;16.826;2023-02-10T14:29:23;102521.86;;;5.88;67.09
26436;BME280;15351;52.408;16.826;2023-02-10T14:32:04;102516.40;;;5.87;67.35
26436;BME280;15351;52.408;16.826;2023-02-10T14:34:35;102516.83;;;5.89;67.33
26436;BME280;15351;52.408;16.826;2023-02-10T14:37:16;102518.70;;;5.90;67.17
26436;BME280;15351;52.408;16.826;2023-02-10T14:39:59;102515.86;;;5.89;67.28
26436;BME280;15351;52.408;16.826;2023-02-10T14:42:29;102514.59;;;5.87;67.20
26436;BME280;15351;52.408;16.826;2023-02-10T14:44:59;102515.93;;;5.86;67.45
26436;BME280;15351;52.408;16.826;2023-02-10T14:47:33;102514.27;;;5.89;67.54
26436;BME280;15351;52.408;16.826;2023-02-10T14:50:03;102517.10;;;5.92;67.36
26436;BME280;15351;52.408;16.826;2023-02-10T14:52:32;102518.83;;;5.93;67.39
26436;BME280;15351;52.408;16.826;2023-02-10T14:55:00;102516.43;;;5.92;67.29
26436;BME280;15351;52.408;16.826;2023-02-10T14:57:28;102515.23;;;5.88;67.26
26436;BME280;15351;52.408;16.826;2023-02-10T14:59:58;102522.55;;;5.86;67.44